Weather at Chippewa County International Airport

Public forecast

Using degrees Fahrenheit for public forecast. Weather courtesy of forecast.io.

Current aviation weather report (METAR) for Chippewa County International Airport

Retrieved 2020/11/24 07:56 UTC (9 minutes ago):

KCIU 240756Z AUTO 08007KT 10SM OVC016 M07/M09 A3036 RMK AO2 SLP293 T10721089 FZRANO

Closest aviation forecast (TAF) to Chippewa County International Airport

Closest forecast is Sault Ste Marie Airport, 14.1 nm (26.2 km) N. Retrieved 2020/11/24 08:42 UTC (0 seconds ago):

TAF TAF CYAM 240739Z 2408/2420 07007KT P6SM OVC020 TEMPO 2408/2412 BKN025 FM241200 08009KT P6SM BKN015 TEMPO 2412/2419 SCT015 FM241900 12010G20KT P6SM SCT015 BKN100 RMK NXT FCST BY 241400Z